Currently 57°F in San Diego (City Heights), California, USA
57°F
57°F / 53°F
5 mph SW
0.00"
Saturday, January 21, 2017 9:29 AM PST

San Diego (City Heights), California Weather Summary
Last 36 Hours

Temperature Winds Hourly Humidity Dewpoint
Time Report Norm Report Norm Max Gusts Precip. Rpt. Norm Rpt. Norm Pressure
1Sat 09:29 AM  56.8°F  64°F  5 mph SW  1 mph  9 mph  0.00"  72%  47%  47°F  43°F  N/A
2Sat 09:20 AM  57.0°F  63°F  4 mph W  1 mph  10 mph  ----  72%  49%  48°F  43°F  N/A
Sat 09:00 AM  56.2°F  62°F  5 mph SW  1 mph  12 mph  0.00"  71%  50%  46°F  42°F  N/A
Sat 08:00 AM  54.1°F  57°F  5 mph SW  1 mph  12 mph  0.00"  80%  54%  48°F  40°F  N/A
Sat 07:00 AM  53.3°F  55°F  1 mph W  1 mph  11 mph  0.00"  78%  57%  46°F  39°F  N/A
Sat 06:00 AM  53.7°F  55°F  6 mph W  1 mph  17 mph  0.00"  71%  57%  44°F  39°F  N/A
Sat 05:00 AM  53.5°F  55°F  5 mph W  1 mph  17 mph  0.00"  74%  58%  45°F  40°F  N/A
3Sat 04:19 AM  52.7°F  55°F  8 mph SW  1 mph  13 mph  ----  81%  58%  47°F  40°F  N/A
Sat 04:00 AM  53.0°F  55°F  2 mph S  1 mph  14 mph  0.00"  82%  58%  47°F  40°F  N/A
Sat 03:00 AM  53.8°F  56°F  8 mph SW  1 mph  13 mph  0.00"  80%  58%  48°F  41°F  N/A
Sat 02:00 AM  54.2°F  56°F  6 mph SW  1 mph  21 mph  0.00"  79%  58%  47°F  41°F  N/A
Sat 01:00 AM  53.9°F  57°F  6 mph SW  1 mph  11 mph  0.00"  84%  58%  49°F  42°F  N/A
Sat 12:00 AM  54.1°F  57°F  4 mph SW  calm  14 mph  1.75"  78%  59%  47°F  42°F  N/A
Fri 11:00 PM  54.3°F  58°F  7 mph W  1 mph  16 mph  0.00"  80%  60%  48°F  43°F  N/A
Fri 10:00 PM  54.7°F  58°F  6 mph SW  1 mph  15 mph  0.01"  83%  61%  49°F  44°F  N/A
Fri 09:00 PM  54.8°F  59°F  8 mph SW  calm  15 mph  0.05"  89%  62%  52°F  45°F  N/A
Fri 08:00 PM  54.3°F  60°F  3 mph SW  calm  9 mph  0.00"  91%  59%  52°F  45°F  N/A
Fri 07:00 PM  52.8°F  61°F  2 mph SW  1 mph  10 mph  0.00"  93%  56%  51°F  45°F  N/A
Fri 06:00 PM  53.1°F  63°F  6 mph SW  1 mph  23 mph  0.14"  95%  51%  52°F  44°F  N/A
Fri 05:00 PM  55.3°F  66°F  9 mph SW  2 mph  22 mph  0.02"  88%  46%  52°F  44°F  N/A
Fri 04:00 PM  56.4°F  70°F  6 mph S  2 mph  15 mph  0.01"  95%  40%  55°F  43°F  N/A
Fri 03:00 PM  55.3°F  71°F  7 mph SW  3 mph  27 mph  0.81"  96%  36%  54°F  42°F  N/A
Fri 02:00 PM  55.3°F  72°F  13 mph SE  2 mph  28 mph  0.08"  95%  34%  54°F  41°F  N/A
Fri 01:00 PM  54.3°F  73°F  5 mph SE  2 mph  20 mph  0.01"  95%  34%  53°F  41°F  N/A
Fri 12:00 PM  54.4°F  72°F  9 mph SE  2 mph  23 mph  0.10"  96%  33%  53°F  40°F  N/A
Fri 11:00 AM  54.0°F  70°F  6 mph SE  2 mph  14 mph  0.12"  96%  35%  53°F  40°F  N/A
Fri 10:00 AM  53.7°F  67°F  5 mph SE  1 mph  13 mph  0.07"  96%  40%  52°F  40°F  N/A
Fri 09:00 AM  53.9°F  62°F  2 mph SE  1 mph  11 mph  0.11"  96%  46%  53°F  40°F  N/A
Fri 08:00 AM  53.2°F  56°F  1 mph SE  1 mph  12 mph  0.06"  95%  52%  52°F  38°F  N/A
Fri 07:00 AM  53.9°F  54°F  4 mph S  1 mph  9 mph  0.07"  96%  54%  53°F  37°F  N/A
Fri 06:00 AM  53.1°F  54°F  calm  1 mph  none  0.03"  96%  55%  52°F  37°F  N/A
Fri 05:00 AM  52.9°F  54°F  calm  1 mph  none  0.00"  95%  55%  52°F  38°F  N/A
Fri 04:00 AM  53.3°F  54°F  calm  1 mph  none  0.00"  95%  56%  52°F  38°F  N/A
Fri 03:00 AM  54.2°F  55°F  calm  1 mph  none  0.02"  95%  56%  53°F  39°F  N/A
Fri 02:00 AM  54.0°F  55°F  calm  1 mph  4 mph  0.02"  95%  56%  53°F  39°F  N/A
Fri 01:00 AM  54.2°F  56°F  calm  1 mph  6 mph  0.02"  93%  56%  52°F  40°F  N/A
Fri 12:00 AM  53.7°F  56°F  calm  calm  none  0.00"  91%  57%  51°F  40°F  N/A
Thu 11:00 PM  53.4°F  57°F  calm  1 mph  none  0.00"  90%  58%  50°F  42°F  N/A
Thu 10:00 PM  53.6°F  57°F  calm  1 mph  none  0.00"  89%  60%  50°F  43°F  N/A

  1. Current weather data. No green row appears if the current weather data is also the high or low for the current day.
  2. High temperature for the current day.
  3. Low temperature for the current day.

The San Diego (City Height), California weather pages are a service of WeatherCurrents. City Heights is a San Diego community, located east of Balboa Park, near Interstate 15
Copyright ©Sat Jan 21 09:29:53 PST 2017  WeatherCurrents. All rights reserved. - Submit questions and comments - Privacy Policy

This page automatically refreshes every 10 minutes.